Springtown, Pennsylvania
Current Conditions -  °F | °C
As of 7:15 PM on Saturday 25 Oct 2014 (Local Time) from KUKT Reporting Station
Overcast Overcast  
Wind Chill: 63°   Ceiling: 6000
Heat Index: 63°   Visibility: 10mi
Dew Point: 45°   Wind: 6mph
Humidity: 52%   Direction: 230°SW
Pressure: 29.68"   Gusts: NA
Location:  40.55°N, 75.28°W
Report Text: KUKT 252315Z AUTO 23005KT 10SM OVC060 17/07 A2968 RMK AO1
Loading
Personal Weather Stations






























Interactive Weather Map
Tropical Storm Tracking
New forecast layout! Learn more

10-Day Weather Forecast

Advertisements
Track Severe Weather on mobile